This is the latest recevied weather packets stored in our database for station/object NW5W-12. If no packets are shown the sender has not sent any weather packets the latest 10 day(s).
| Time | Temp. | Humidity | Pressure | Rain* | Wind** | Luminosity | Snow |
|---|---|---|---|---|---|---|---|
| 1788174840 | 13.33° C | 79% | 1020.4 hPa | 0 mm | - | - | - |
| 1788174540 | 13.33° C | 78% | 1020.4 hPa | 0 mm | - | - | - |
| 1788174239 | 13.33° C | 76% | 1020.4 hPa | 0 mm | - | - | - |
| 1788173940 | 13.89° C | 75% | 1020.4 hPa | 0 mm | - | - | - |
| 1788173639 | 13.89° C | 71% | 1020.4 hPa | 0 mm | - | - | - |
| 1788173340 | 13.89° C | 70% | 1020.4 hPa | 0 mm | - | - | - |
| 1788173040 | 13.89° C | 68% | 1020.4 hPa | 0 mm | - | - | - |
| 1788172740 | 13.89° C | 65% | 1020.4 hPa | 0 mm | - | - | - |
| 1788172449 | 13.89° C | 65% | 1020.4 hPa | 0 mm | - | - | - |
| 1788172140 | 13.89° C | 63% | 1020.4 hPa | 0 mm | - | - | - |
| 1788171840 | 13.89° C | 63% | 1020.3 hPa | 0 mm | - | - | - |
| 1788171539 | 13.89° C | 61% | 1020.4 hPa | 0 mm | - | - | - |
| 1788171240 | 14.44° C | 60% | 1020.3 hPa | 0 mm | - | - | - |
| 1788170939 | 14.44° C | 58% | 1020.2 hPa | 0 mm | - | - | - |
| 1788170640 | 14.44° C | 58% | 1020.2 hPa | 0 mm | - | - | - |
| 1788170340 | 13.89° C | 61% | 1020.1 hPa | 0 mm | - | - | - |
| 1788170040 | 13.89° C | 67% | 1020.1 hPa | 0 mm | - | - | - |
| 1788169740 | 12.78° C | 75% | 1020.1 hPa | 0 mm | - | - | - |
| 1788169440 | 12.78° C | 75% | 1020.1 hPa | 0 mm | - | - | - |
| 1788169139 | 13.33° C | 74% | 1020.1 hPa | 0 mm | - | - | - |
| 1788168839 | 13.33° C | 75% | 1020.1 hPa | 0 mm | - | - | - |
| 1788168540 | 12.78° C | 75% | 1020.1 hPa | 0 mm | - | - | - |
| 1788168240 | 12.78° C | 75% | 1020.1 hPa | 0 mm | - | - | - |
| 1788167940 | 12.78° C | 74% | 1020.1 hPa | 0 mm | - | - | - |
| 1788167640 | 13.33° C | 71% | 1020.1 hPa | 0 mm | - | - | - |
* Rain since midnight (hover to see other rain measurements)
** Current wind speed in m/s (hover to see current wind gust speed)